sensor_id;sensor_type;location;lat;lon;timestamp;temperature;humidity
36416;DHT22;22447;44.530;18.620;2023-11-21T00:01:03;6.50;99.90
36416;DHT22;22447;44.530;18.620;2023-11-21T00:03:30;6.40;99.90
36416;DHT22;22447;44.530;18.620;2023-11-21T00:05:56;6.50;99.90
36416;DHT22;22447;44.530;18.620;2023-11-21T00:08:22;6.50;99.90
36416;DHT22;22447;44.530;18.620;2023-11-21T00:10:48;6.50;99.90
36416;DHT22;22447;44.530;18.620;2023-11-21T00:13:14;6.40;99.90
36416;DHT22;22447;44.530;18.620;2023-11-21T00:15:40;6.50;99.90
36416;DHT22;22447;44.530;18.620;2023-11-21T00:18:06;6.50;99.90
36416;DHT22;22447;44.530;18.620;2023-11-21T00:20:32;6.50;99.90
36416;DHT22;22447;44.530;18.620;2023-11-21T00:22:58;6.60;99.90
36416;DHT22;22447;44.530;18.620;2023-11-21T00:25:25;6.50;99.90
36416;DHT22;22447;44.530;18.620;2023-11-21T00:27:51;6.60;99.90
36416;DHT22;22447;44.530;18.620;2023-11-21T00:30:17;6.60;99.90
36416;DHT22;22447;44.530;18.620;2023-11-21T00:32:43;6.60;99.90
36416;DHT22;22447;44.530;18.620;2023-11-21T00:35:09;6.70;99.90
36416;DHT22;22447;44.530;18.620;2023-11-21T00:37:35;6.70;99.90
36416;DHT22;22447;44.530;18.620;2023-11-21T00:40:01;6.80;99.90
36416;DHT22;22447;44.530;18.620;2023-11-21T00:42:31;6.80;99.90
36416;DHT22;22447;44.530;18.620;2023-11-21T00:44:59;6.70;99.90
36416;DHT22;22447;44.530;18.620;2023-11-21T00:47:25;6.70;99.90
36416;DHT22;22447;44.530;18.620;2023-11-21T00:49:51;6.70;99.90
36416;DHT22;22447;44.530;18.620;2023-11-21T00:52:18;6.60;99.90
36416;DHT22;22447;44.530;18.620;2023-11-21T00:54:44;6.60;99.90
36416;DHT22;22447;44.530;18.620;2023-11-21T00:57:10;6.60;99.90
36416;DHT22;22447;44.530;18.620;2023-11-21T00:59:37;6.60;99.90
36416;DHT22;22447;44.530;18.620;2023-11-21T01:02:03;6.50;99.90
36416;DHT22;22447;44.530;18.620;2023-11-21T01:04:31;6.50;99.90
36416;DHT22;22447;44.530;18.620;2023-11-21T01:07:00;6.50;99.90
36416;DHT22;22447;44.530;18.620;2023-11-21T01:09:25;6.60;99.90
36416;DHT22;22447;44.530;18.620;2023-11-21T01:11:51;6.50;99.90
36416;DHT22;22447;44.530;18.620;2023-11-21T01:14:17;6.30;99.90
36416;DHT22;22447;44.530;18.620;2023-11-21T01:16:43;6.30;99.90
36416;DHT22;22447;44.530;18.620;2023-11-21T01:19:09;6.10;99.90
36416;DHT22;22447;44.530;18.620;2023-11-21T01:21:35;6.00;99.90
36416;DHT22;22447;44.530;18.620;2023-11-21T01:24:01;6.10;99.90
36416;DHT22;22447;44.530;18.620;2023-11-21T01:26:28;6.00;99.90
36416;DHT22;22447;44.530;18.620;2023-11-21T01:28:54;6.00;99.90
36416;DHT22;22447;44.530;18.620;2023-11-21T01:31:20;5.80;99.90
36416;DHT22;22447;44.530;18.620;2023-11-21T01:33:46;5.80;99.90
36416;DHT22;22447;44.530;18.620;2023-11-21T01:36:12;5.80;99.90
36416;DHT22;22447;44.530;18.620;2023-11-21T01:38:38;5.70;99.90
36416;DHT22;22447;44.530;18.620;2023-11-21T01:41:04;5.60;99.90
36416;DHT22;22447;44.530;18.620;2023-11-21T01:43:31;5.60;99.90
36416;DHT22;22447;44.530;18.620;2023-11-21T01:45:58;5.60;99.90
36416;DHT22;22447;44.530;18.620;2023-11-21T01:48:25;5.70;99.90
36416;DHT22;22447;44.530;18.620;2023-11-21T01:50:51;5.70;99.90
36416;DHT22;22447;44.530;18.620;2023-11-21T01:53:17;5.70;99.90
36416;DHT22;22447;44.530;18.620;2023-11-21T01:55:45;5.80;99.90
36416;DHT22;22447;44.530;18.620;2023-11-21T01:58:12;5.80;99.90
36416;DHT22;22447;44.530;18.620;2023-11-21T02:00:42;5.80;99.90
36416;DHT22;22447;44.530;18.620;2023-11-21T02:03:09;5.80;99.90
36416;DHT22;22447;44.530;18.620;2023-11-21T02:05:36;5.80;99.90
36416;DHT22;22447;44.530;18.620;2023-11-21T02:08:02;5.80;99.90
36416;DHT22;22447;44.530;18.620;2023-11-21T02:10:28;5.70;99.90
36416;DHT22;22447;44.530;18.620;2023-11-21T02:12:57;5.70;99.90
36416;DHT22;22447;44.530;18.620;2023-11-21T02:15:24;5.70;99.90
36416;DHT22;22447;44.530;18.620;2023-11-21T02:17:54;5.80;99.90
36416;DHT22;22447;44.530;18.620;2023-11-21T02:20:21;5.80;99.90
36416;DHT22;22447;44.530;18.620;2023-11-21T02:22:55;5.90;99.90
36416;DHT22;22447;44.530;18.620;2023-11-21T02:25:28;5.90;99.90
36416;DHT22;22447;44.530;18.620;2023-11-21T02:27:59;6.00;99.90
36416;DHT22;22447;44.530;18.620;2023-11-21T02:30:26;6.10;99.90
36416;DHT22;22447;44.530;18.620;2023-11-21T02:32:54;6.10;99.90
36416;DHT22;22447;44.530;18.620;2023-11-21T02:35:22;6.10;99.90
36416;DHT22;22447;44.530;18.620;2023-11-21T02:37:49;6.10;99.90
36416;DHT22;22447;44.530;18.620;2023-11-21T02:40:16;6.20;99.90
36416;DHT22;22447;44.530;18.620;2023-11-21T02:42:50;6.20;99.90
36416;DHT22;22447;44.530;18.620;2023-11-21T02:45:17;6.10;99.90
36416;DHT22;22447;44.530;18.620;2023-11-21T02:47:44;6.00;99.90
36416;DHT22;22447;44.530;18.620;2023-11-21T02:50:10;6.00;99.90
36416;DHT22;22447;44.530;18.620;2023-11-21T02:52:37;6.10;99.90
36416;DHT22;22447;44.530;18.620;2023-11-21T02:55:03;6.10;99.90
36416;DHT22;22447;44.530;18.620;2023-11-21T02:57:29;6.20;99.90
36416;DHT22;22447;44.530;18.620;2023-11-21T02:59:55;6.20;99.90
36416;DHT22;22447;44.530;18.620;2023-11-21T03:02:22;6.20;99.90
36416;DHT22;22447;44.530;18.620;2023-11-21T03:04:48;6.30;99.90
36416;DHT22;22447;44.530;18.620;2023-11-21T03:07:15;6.30;99.90
36416;DHT22;22447;44.530;18.620;2023-11-21T03:09:41;6.40;99.90
36416;DHT22;22447;44.530;18.620;2023-11-21T03:12:07;6.40;99.90
36416;DHT22;22447;44.530;18.620;2023-11-21T03:14:34;6.30;99.90
36416;DHT22;22447;44.530;18.620;2023-11-21T03:17:00;6.30;99.90
36416;DHT22;22447;44.530;18.620;2023-11-21T03:19:27;6.30;99.90
36416;DHT22;22447;44.530;18.620;2023-11-21T03:21:53;6.30;99.90
36416;DHT22;22447;44.530;18.620;2023-11-21T03:24:19;6.40;99.90
36416;DHT22;22447;44.530;18.620;2023-11-21T03:26:46;6.30;99.90
36416;DHT22;22447;44.530;18.620;2023-11-21T03:29:12;6.20;99.90
36416;DHT22;22447;44.530;18.620;2023-11-21T03:31:39;6.30;99.90
36416;DHT22;22447;44.530;18.620;2023-11-21T03:34:04;6.30;99.90
36416;DHT22;22447;44.530;18.620;2023-11-21T03:36:30;6.30;99.90
36416;DHT22;22447;44.530;18.620;2023-11-21T03:38:56;6.30;99.90
36416;DHT22;22447;44.530;18.620;2023-11-21T03:41:22;6.40;99.90
36416;DHT22;22447;44.530;18.620;2023-11-21T03:43:49;6.40;99.90
36416;DHT22;22447;44.530;18.620;2023-11-21T03:46:15;6.40;99.90
36416;DHT22;22447;44.530;18.620;2023-11-21T03:48:42;6.40;99.90
36416;DHT22;22447;44.530;18.620;2023-11-21T03:51:08;6.50;99.90
36416;DHT22;22447;44.530;18.620;2023-11-21T03:53:34;6.60;99.90
36416;DHT22;22447;44.530;18.620;2023-11-21T03:56:02;6.60;99.90
36416;DHT22;22447;44.530;18.620;2023-11-21T03:58:29;6.60;99.90
36416;DHT22;22447;44.530;18.620;2023-11-21T04:00:55;6.60;99.90
36416;DHT22;22447;44.530;18.620;2023-11-21T04:03:21;6.70;99.90
36416;DHT22;22447;44.530;18.620;2023-11-21T04:05:47;6.50;99.90
36416;DHT22;22447;44.530;18.620;2023-11-21T04:08:13;6.50;99.90
36416;DHT22;22447;44.530;18.620;2023-11-21T04:10:38;6.60;99.90
36416;DHT22;22447;44.530;18.620;2023-11-21T04:13:05;6.50;99.90
36416;DHT22;22447;44.530;18.620;2023-11-21T04:15:32;6.60;99.90
36416;DHT22;22447;44.530;18.620;2023-11-21T04:17:58;6.60;99.90
36416;DHT22;22447;44.530;18.620;2023-11-21T04:20:24;6.70;99.90
36416;DHT22;22447;44.530;18.620;2023-11-21T04:22:50;6.60;99.90
36416;DHT22;22447;44.530;18.620;2023-11-21T04:25:16;6.60;99.90
36416;DHT22;22447;44.530;18.620;2023-11-21T04:27:43;6.50;99.90
36416;DHT22;22447;44.530;18.620;2023-11-21T04:30:10;6.40;99.90
36416;DHT22;22447;44.530;18.620;2023-11-21T04:32:37;6.40;99.90
36416;DHT22;22447;44.530;18.620;2023-11-21T04:35:03;6.30;99.90
36416;DHT22;22447;44.530;18.620;2023-11-21T04:37:29;6.30;99.90
36416;DHT22;22447;44.530;18.620;2023-11-21T04:39:55;6.40;99.90
36416;DHT22;22447;44.530;18.620;2023-11-21T04:42:21;6.40;99.90
36416;DHT22;22447;44.530;18.620;2023-11-21T04:44:48;6.40;99.90
36416;DHT22;22447;44.530;18.620;2023-11-21T04:47:14;6.40;99.90
36416;DHT22;22447;44.530;18.620;2023-11-21T04:49:42;6.40;99.90
36416;DHT22;22447;44.530;18.620;2023-11-21T04:52:08;6.50;99.90
36416;DHT22;22447;44.530;18.620;2023-11-21T04:54:35;6.50;99.90
36416;DHT22;22447;44.530;18.620;2023-11-21T04:57:01;6.50;99.90
36416;DHT22;22447;44.530;18.620;2023-11-21T04:59:27;6.60;99.90
36416;DHT22;22447;44.530;18.620;2023-11-21T05:01:53;6.50;99.90
36416;DHT22;22447;44.530;18.620;2023-11-21T05:04:20;6.50;99.90
36416;DHT22;22447;44.530;18.620;2023-11-21T05:06:48;6.50;99.90
36416;DHT22;22447;44.530;18.620;2023-11-21T05:09:14;6.60;99.90
36416;DHT22;22447;44.530;18.620;2023-11-21T05:11:41;6.60;99.90
36416;DHT22;22447;44.530;18.620;2023-11-21T05:14:07;6.60;99.90
36416;DHT22;22447;44.530;18.620;2023-11-21T05:16:34;6.60;99.90
36416;DHT22;22447;44.530;18.620;2023-11-21T05:19:01;6.60;99.90
36416;DHT22;22447;44.530;18.620;2023-11-21T05:21:27;6.60;99.90
36416;DHT22;22447;44.530;18.620;2023-11-21T05:23:55;6.60;99.90
36416;DHT22;22447;44.530;18.620;2023-11-21T05:26:20;6.60;99.90
36416;DHT22;22447;44.530;18.620;2023-11-21T05:28:47;6.60;99.90
36416;DHT22;22447;44.530;18.620;2023-11-21T05:31:13;6.70;99.90
36416;DHT22;22447;44.530;18.620;2023-11-21T05:33:39;6.60;99.90
36416;DHT22;22447;44.530;18.620;2023-11-21T05:36:05;6.60;99.90
36416;DHT22;22447;44.530;18.620;2023-11-21T05:38:34;6.60;99.90
36416;DHT22;22447;44.530;18.620;2023-11-21T05:41:01;6.60;99.90
36416;DHT22;22447;44.530;18.620;2023-11-21T05:43:27;6.70;99.90
36416;DHT22;22447;44.530;18.620;2023-11-21T05:45:55;6.70;99.90
36416;DHT22;22447;44.530;18.620;2023-11-21T05:48:21;6.70;99.90
36416;DHT22;22447;44.530;18.620;2023-11-21T05:50:47;6.70;99.90
36416;DHT22;22447;44.530;18.620;2023-11-21T05:53:14;6.70;99.90
36416;DHT22;22447;44.530;18.620;2023-11-21T05:55:41;6.70;99.90
36416;DHT22;22447;44.530;18.620;2023-11-21T05:58:08;6.70;99.90
36416;DHT22;22447;44.530;18.620;2023-11-21T06:00:33;6.70;99.90
36416;DHT22;22447;44.530;18.620;2023-11-21T06:03:00;6.70;99.90
36416;DHT22;22447;44.530;18.620;2023-11-21T06:05:26;6.80;99.90
36416;DHT22;22447;44.530;18.620;2023-11-21T06:07:53;6.70;99.90
36416;DHT22;22447;44.530;18.620;2023-11-21T06:10:21;6.80;99.90
36416;DHT22;22447;44.530;18.620;2023-11-21T06:12:47;6.80;99.90
36416;DHT22;22447;44.530;18.620;2023-11-21T06:15:13;6.90;99.90
36416;DHT22;22447;44.530;18.620;2023-11-21T06:17:40;6.90;99.90
36416;DHT22;22447;44.530;18.620;2023-11-21T06:20:07;6.90;99.90
36416;DHT22;22447;44.530;18.620;2023-11-21T06:22:43;7.00;99.90
36416;DHT22;22447;44.530;18.620;2023-11-21T06:25:10;7.00;99.90
36416;DHT22;22447;44.530;18.620;2023-11-21T06:27:48;7.00;99.90
36416;DHT22;22447;44.530;18.620;2023-11-21T06:30:14;7.00;99.90
36416;DHT22;22447;44.530;18.620;2023-11-21T06:32:41;7.10;99.90
36416;DHT22;22447;44.530;18.620;2023-11-21T06:35:08;7.10;99.90
36416;DHT22;22447;44.530;18.620;2023-11-21T06:37:35;7.00;99.90
36416;DHT22;22447;44.530;18.620;2023-11-21T06:40:01;7.10;99.90
36416;DHT22;22447;44.530;18.620;2023-11-21T06:42:30;7.30;99.90
36416;DHT22;22447;44.530;18.620;2023-11-21T06:44:56;7.20;99.90
36416;DHT22;22447;44.530;18.620;2023-11-21T06:47:23;7.20;99.90
36416;DHT22;22447;44.530;18.620;2023-11-21T06:49:53;7.40;99.90
36416;DHT22;22447;44.530;18.620;2023-11-21T06:52:19;7.30;99.90
36416;DHT22;22447;44.530;18.620;2023-11-21T06:54:46;7.40;99.90
36416;DHT22;22447;44.530;18.620;2023-11-21T06:57:13;7.40;99.90
36416;DHT22;22447;44.530;18.620;2023-11-21T06:59:39;7.50;99.90
36416;DHT22;22447;44.530;18.620;2023-11-21T07:02:05;7.60;99.90
36416;DHT22;22447;44.530;18.620;2023-11-21T07:04:35;7.50;99.90
36416;DHT22;22447;44.530;18.620;2023-11-21T07:07:02;7.60;99.90
36416;DHT22;22447;44.530;18.620;2023-11-21T07:09:29;7.60;99.90
36416;DHT22;22447;44.530;18.620;2023-11-21T07:11:55;7.50;99.90
36416;DHT22;22447;44.530;18.620;2023-11-21T07:14:21;7.50;99.90
36416;DHT22;22447;44.530;18.620;2023-11-21T07:16:47;7.60;99.90
36416;DHT22;22447;44.530;18.620;2023-11-21T07:19:13;7.70;99.90
36416;DHT22;22447;44.530;18.620;2023-11-21T07:21:40;7.70;99.90
36416;DHT22;22447;44.530;18.620;2023-11-21T07:24:07;7.70;99.90
36416;DHT22;22447;44.530;18.620;2023-11-21T07:26:34;7.70;99.90
36416;DHT22;22447;44.530;18.620;2023-11-21T07:29:01;7.60;99.90
36416;DHT22;22447;44.530;18.620;2023-11-21T07:31:28;7.70;99.90
36416;DHT22;22447;44.530;18.620;2023-11-21T07:33:54;7.70;99.90
36416;DHT22;22447;44.530;18.620;2023-11-21T07:36:23;7.80;99.90
36416;DHT22;22447;44.530;18.620;2023-11-21T07:38:49;7.90;99.90
36416;DHT22;22447;44.530;18.620;2023-11-21T07:41:15;7.80;99.90
36416;DHT22;22447;44.530;18.620;2023-11-21T07:43:43;7.80;99.90
36416;DHT22;22447;44.530;18.620;2023-11-21T07:46:10;7.90;99.90
36416;DHT22;22447;44.530;18.620;2023-11-21T07:48:38;8.00;99.90
36416;DHT22;22447;44.530;18.620;2023-11-21T07:51:05;8.00;99.90
36416;DHT22;22447;44.530;18.620;2023-11-21T07:53:31;8.10;99.90
36416;DHT22;22447;44.530;18.620;2023-11-21T07:55:58;8.10;99.90
36416;DHT22;22447;44.530;18.620;2023-11-21T07:58:24;8.10;99.90
36416;DHT22;22447;44.530;18.620;2023-11-21T08:00:50;8.20;99.90
36416;DHT22;22447;44.530;18.620;2023-11-21T08:03:16;8.30;99.90
36416;DHT22;22447;44.530;18.620;2023-11-21T08:05:42;8.30;99.90
36416;DHT22;22447;44.530;18.620;2023-11-21T08:08:08;8.30;99.90
36416;DHT22;22447;44.530;18.620;2023-11-21T08:10:34;8.30;99.90
36416;DHT22;22447;44.530;18.620;2023-11-21T08:13:02;8.40;99.90
36416;DHT22;22447;44.530;18.620;2023-11-21T08:15:28;8.40;99.90
36416;DHT22;22447;44.530;18.620;2023-11-21T08:17:54;8.40;99.90
36416;DHT22;22447;44.530;18.620;2023-11-21T08:20:20;8.40;99.90
36416;DHT22;22447;44.530;18.620;2023-11-21T08:22:48;8.40;99.90
36416;DHT22;22447;44.530;18.620;2023-11-21T08:25:14;8.50;99.90
36416;DHT22;22447;44.530;18.620;2023-11-21T08:27:40;8.60;99.90
36416;DHT22;22447;44.530;18.620;2023-11-21T08:30:06;8.60;99.90
36416;DHT22;22447;44.530;18.620;2023-11-21T08:32:33;8.60;99.90
36416;DHT22;22447;44.530;18.620;2023-11-21T08:35:00;8.70;99.90
36416;DHT22;22447;44.530;18.620;2023-11-21T08:37:27;8.70;99.90
36416;DHT22;22447;44.530;18.620;2023-11-21T08:39:58;8.70;99.90
36416;DHT22;22447;44.530;18.620;2023-11-21T08:42:25;8.60;99.90
36416;DHT22;22447;44.530;18.620;2023-11-21T08:44:51;8.60;99.90
36416;DHT22;22447;44.530;18.620;2023-11-21T08:47:16;8.60;99.90
36416;DHT22;22447;44.530;18.620;2023-11-21T08:49:42;8.60;99.90
36416;DHT22;22447;44.530;18.620;2023-11-21T08:52:08;8.70;99.90
36416;DHT22;22447;44.530;18.620;2023-11-21T08:54:34;8.70;99.90
36416;DHT22;22447;44.530;18.620;2023-11-21T08:57:00;8.60;99.90
36416;DHT22;22447;44.530;18.620;2023-11-21T08:59:26;8.50;99.90
36416;DHT22;22447;44.530;18.620;2023-11-21T09:01:52;8.50;99.90
36416;DHT22;22447;44.530;18.620;2023-11-21T09:04:18;8.50;99.90
36416;DHT22;22447;44.530;18.620;2023-11-21T09:06:44;8.40;99.90
36416;DHT22;22447;44.530;18.620;2023-11-21T09:09:09;8.40;99.90
36416;DHT22;22447;44.530;18.620;2023-11-21T09:11:36;8.40;99.90
36416;DHT22;22447;44.530;18.620;2023-11-21T09:14:03;8.40;99.90
36416;DHT22;22447;44.530;18.620;2023-11-21T09:16:29;8.40;99.90
36416;DHT22;22447;44.530;18.620;2023-11-21T09:18:55;8.40;99.90
36416;DHT22;22447;44.530;18.620;2023-11-21T09:21:21;8.40;99.90
36416;DHT22;22447;44.530;18.620;2023-11-21T09:23:49;8.40;99.90
36416;DHT22;22447;44.530;18.620;2023-11-21T09:26:15;8.30;99.90
36416;DHT22;22447;44.530;18.620;2023-11-21T09:28:43;8.20;99.90
36416;DHT22;22447;44.530;18.620;2023-11-21T09:31:12;8.30;99.90
36416;DHT22;22447;44.530;18.620;2023-11-21T09:33:40;8.30;99.90
36416;DHT22;22447;44.530;18.620;2023-11-21T09:36:10;8.50;99.90
36416;DHT22;22447;44.530;18.620;2023-11-21T09:38:36;8.40;99.90
36416;DHT22;22447;44.530;18.620;2023-11-21T09:41:03;8.30;99.90
36416;DHT22;22447;44.530;18.620;2023-11-21T09:43:30;8.40;99.90
36416;DHT22;22447;44.530;18.620;2023-11-21T09:46:00;8.50;99.90
36416;DHT22;22447;44.530;18.620;2023-11-21T09:48:29;8.50;99.90
36416;DHT22;22447;44.530;18.620;2023-11-21T09:50:57;8.50;99.90
36416;DHT22;22447;44.530;18.620;2023-11-21T09:53:23;8.50;99.90
36416;DHT22;22447;44.530;18.620;2023-11-21T09:55:52;8.40;99.90
36416;DHT22;22447;44.530;18.620;2023-11-21T09:58:19;8.50;99.90
36416;DHT22;22447;44.530;18.620;2023-11-21T10:00:47;8.60;99.90
36416;DHT22;22447;44.530;18.620;2023-11-21T10:03:13;8.50;99.90
36416;DHT22;22447;44.530;18.620;2023-11-21T10:05:41;8.70;99.90
36416;DHT22;22447;44.530;18.620;2023-11-21T10:08:09;8.70;99.90
36416;DHT22;22447;44.530;18.620;2023-11-21T10:10:42;8.60;99.90
36416;DHT22;22447;44.530;18.620;2023-11-21T10:13:12;8.70;99.90
36416;DHT22;22447;44.530;18.620;2023-11-21T10:15:39;8.60;99.90
36416;DHT22;22447;44.530;18.620;2023-11-21T10:18:10;8.70;99.90
36416;DHT22;22447;44.530;18.620;2023-11-21T10:20:36;8.70;99.90
36416;DHT22;22447;44.530;18.620;2023-11-21T10:23:03;8.70;99.90
36416;DHT22;22447;44.530;18.620;2023-11-21T10:25:30;8.70;99.90
36416;DHT22;22447;44.530;18.620;2023-11-21T10:28:01;8.60;99.90
36416;DHT22;22447;44.530;18.620;2023-11-21T10:30:33;8.70;99.90
36416;DHT22;22447;44.530;18.620;2023-11-21T10:33:06;8.80;99.90
36416;DHT22;22447;44.530;18.620;2023-11-21T10:35:49;8.70;99.90
36416;DHT22;22447;44.530;18.620;2023-11-21T10:38:21;8.60;99.90
36416;DHT22;22447;44.530;18.620;2023-11-21T10:40:49;8.60;99.90
36416;DHT22;22447;44.530;18.620;2023-11-21T10:43:15;8.60;99.90
36416;DHT22;22447;44.530;18.620;2023-11-21T10:45:43;8.50;99.90
36416;DHT22;22447;44.530;18.620;2023-11-21T10:48:15;8.60;99.90
36416;DHT22;22447;44.530;18.620;2023-11-21T10:50:45;8.50;99.90
36416;DHT22;22447;44.530;18.620;2023-11-21T10:53:11;8.50;99.90
36416;DHT22;22447;44.530;18.620;2023-11-21T10:55:38;8.40;99.90
36416;DHT22;22447;44.530;18.620;2023-11-21T10:58:05;8.40;99.90
36416;DHT22;22447;44.530;18.620;2023-11-21T11:00:34;8.40;99.90
36416;DHT22;22447;44.530;18.620;2023-11-21T11:03:00;8.30;99.90
36416;DHT22;22447;44.530;18.620;2023-11-21T11:05:29;8.30;99.90
36416;DHT22;22447;44.530;18.620;2023-11-21T11:08:02;8.40;99.90
36416;DHT22;22447;44.530;18.620;2023-11-21T11:10:29;8.40;99.90
36416;DHT22;22447;44.530;18.620;2023-11-21T11:12:56;8.40;99.90
36416;DHT22;22447;44.530;18.620;2023-11-21T11:15:27;8.40;99.90
36416;DHT22;22447;44.530;18.620;2023-11-21T11:17:54;8.40;99.90
36416;DHT22;22447;44.530;18.620;2023-11-21T11:20:36;8.40;99.90
36416;DHT22;22447;44.530;18.620;2023-11-21T11:28:57;8.50;99.90
36416;DHT22;22447;44.530;18.620;2023-11-21T11:34:15;8.50;99.90
36416;DHT22;22447;44.530;18.620;2023-11-21T11:36:49;8.50;99.90
36416;DHT22;22447;44.530;18.620;2023-11-21T11:39:38;8.50;99.90
36416;DHT22;22447;44.530;18.620;2023-11-21T11:42:11;8.60;99.90
36416;DHT22;22447;44.530;18.620;2023-11-21T11:47:15;8.60;99.90
36416;DHT22;22447;44.530;18.620;2023-11-21T11:50:07;8.50;99.90
36416;DHT22;22447;44.530;18.620;2023-11-21T11:52:41;8.50;99.90
36416;DHT22;22447;44.530;18.620;2023-11-21T11:55:10;8.50;99.90
36416;DHT22;22447;44.530;18.620;2023-11-21T11:57:37;8.50;99.90
36416;DHT22;22447;44.530;18.620;2023-11-21T12:02:50;8.50;99.90
36416;DHT22;22447;44.530;18.620;2023-11-21T12:05:20;8.40;99.90
36416;DHT22;22447;44.530;18.620;2023-11-21T12:07:52;8.40;99.90
36416;DHT22;22447;44.530;18.620;2023-11-21T12:10:30;8.40;99.90
36416;DHT22;22447;44.530;18.620;2023-11-21T12:12:58;8.30;99.90
36416;DHT22;22447;44.530;18.620;2023-11-21T12:15:25;8.30;99.90
36416;DHT22;22447;44.530;18.620;2023-11-21T12:17:51;8.40;99.90
36416;DHT22;22447;44.530;18.620;2023-11-21T12:20:22;8.40;99.90
36416;DHT22;22447;44.530;18.620;2023-11-21T12:22:56;8.30;99.90
36416;DHT22;22447;44.530;18.620;2023-11-21T12:25:31;8.30;99.90
36416;DHT22;22447;44.530;18.620;2023-11-21T12:28:02;8.20;99.90
36416;DHT22;22447;44.530;18.620;2023-11-21T12:30:30;8.20;99.90
36416;DHT22;22447;44.530;18.620;2023-11-21T12:33:00;8.30;99.90
36416;DHT22;22447;44.530;18.620;2023-11-21T12:35:28;8.20;99.90
36416;DHT22;22447;44.530;18.620;2023-11-21T12:37:55;8.10;99.90
36416;DHT22;22447;44.530;18.620;2023-11-21T12:40:23;8.20;99.90
36416;DHT22;22447;44.530;18.620;2023-11-21T12:42:54;8.10;99.90
36416;DHT22;22447;44.530;18.620;2023-11-21T12:48:01;8.30;99.90
36416;DHT22;22447;44.530;18.620;2023-11-21T12:50:32;8.40;99.90
36416;DHT22;22447;44.530;18.620;2023-11-21T12:53:04;8.40;99.90
36416;DHT22;22447;44.530;18.620;2023-11-21T12:55:32;8.40;99.90
36416;DHT22;22447;44.530;18.620;2023-11-21T12:58:00;8.40;99.90
36416;DHT22;22447;44.530;18.620;2023-11-21T13:00:37;8.40;99.90
36416;DHT22;22447;44.530;18.620;2023-11-21T13:03:05;8.40;99.90
36416;DHT22;22447;44.530;18.620;2023-11-21T13:05:39;8.40;99.90
36416;DHT22;22447;44.530;18.620;2023-11-21T13:08:08;8.40;99.90
36416;DHT22;22447;44.530;18.620;2023-11-21T13:10:42;8.40;99.90
36416;DHT22;22447;44.530;18.620;2023-11-21T13:13:11;8.40;99.90
36416;DHT22;22447;44.530;18.620;2023-11-21T13:15:48;8.50;99.90
36416;DHT22;22447;44.530;18.620;2023-11-21T13:18:14;8.60;99.90
36416;DHT22;22447;44.530;18.620;2023-11-21T13:20:41;8.60;99.90
36416;DHT22;22447;44.530;18.620;2023-11-21T13:23:09;8.70;99.90
36416;DHT22;22447;44.530;18.620;2023-11-21T13:25:40;8.70;99.90
36416;DHT22;22447;44.530;18.620;2023-11-21T13:28:11;8.70;99.90
36416;DHT22;22447;44.530;18.620;2023-11-21T13:30:38;8.70;99.90
36416;DHT22;22447;44.530;18.620;2023-11-21T13:33:06;8.70;99.90
36416;DHT22;22447;44.530;18.620;2023-11-21T13:35:35;8.70;99.90
36416;DHT22;22447;44.530;18.620;2023-11-21T13:38:14;8.70;99.90
36416;DHT22;22447;44.530;18.620;2023-11-21T13:40:50;8.70;99.90
36416;DHT22;22447;44.530;18.620;2023-11-21T13:43:23;8.60;99.90
36416;DHT22;22447;44.530;18.620;2023-11-21T13:45:52;8.60;99.90
36416;DHT22;22447;44.530;18.620;2023-11-21T13:48:26;8.70;99.90
36416;DHT22;22447;44.530;18.620;2023-11-21T13:51:08;8.70;99.90
36416;DHT22;22447;44.530;18.620;2023-11-21T13:53:38;8.70;99.90
36416;DHT22;22447;44.530;18.620;2023-11-21T13:56:05;8.80;99.90
36416;DHT22;22447;44.530;18.620;2023-11-21T13:58:31;8.80;99.90
36416;DHT22;22447;44.530;18.620;2023-11-21T14:01:17;8.80;99.90
36416;DHT22;22447;44.530;18.620;2023-11-21T14:03:55;8.70;99.90
36416;DHT22;22447;44.530;18.620;2023-11-21T14:06:53;8.70;99.90
36416;DHT22;22447;44.530;18.620;2023-11-21T14:09:22;8.70;99.90
36416;DHT22;22447;44.530;18.620;2023-11-21T14:11:51;8.60;99.90
36416;DHT22;22447;44.530;18.620;2023-11-21T14:14:19;8.60;99.90
36416;DHT22;22447;44.530;18.620;2023-11-21T14:16:45;8.60;99.90
36416;DHT22;22447;44.530;18.620;2023-11-21T14:19:10;8.60;99.90
36416;DHT22;22447;44.530;18.620;2023-11-21T14:21:46;8.70;99.90
36416;DHT22;22447;44.530;18.620;2023-11-21T14:24:13;8.80;99.90
36416;DHT22;22447;44.530;18.620;2023-11-21T14:26:43;8.80;99.90
36416;DHT22;22447;44.530;18.620;2023-11-21T14:29:11;8.80;99.90
36416;DHT22;22447;44.530;18.620;2023-11-21T14:31:42;8.80;99.90
36416;DHT22;22447;44.530;18.620;2023-11-21T14:34:09;8.80;99.90
36416;DHT22;22447;44.530;18.620;2023-11-21T14:36:36;8.80;99.90
36416;DHT22;22447;44.530;18.620;2023-11-21T14:39:03;8.80;99.90
36416;DHT22;22447;44.530;18.620;2023-11-21T14:41:33;8.80;99.90
36416;DHT22;22447;44.530;18.620;2023-11-21T14:44:01;8.80;99.90
36416;DHT22;22447;44.530;18.620;2023-11-21T14:46:30;8.90;99.90
36416;DHT22;22447;44.530;18.620;2023-11-21T14:48:55;8.90;99.90
36416;DHT22;22447;44.530;18.620;2023-11-21T14:51:28;8.90;99.90
36416;DHT22;22447;44.530;18.620;2023-11-21T14:53:58;8.90;99.90
36416;DHT22;22447;44.530;18.620;2023-11-21T14:56:35;8.80;99.90
36416;DHT22;22447;44.530;18.620;2023-11-21T14:59:02;8.90;99.90
36416;DHT22;22447;44.530;18.620;2023-11-21T15:01:34;8.80;99.90
36416;DHT22;22447;44.530;18.620;2023-11-21T15:04:19;8.80;99.90
36416;DHT22;22447;44.530;18.620;2023-11-21T15:07:05;8.80;99.90
36416;DHT22;22447;44.530;18.620;2023-11-21T15:09:31;8.70;99.90
36416;DHT22;22447;44.530;18.620;2023-11-21T15:11:57;8.70;99.90
36416;DHT22;22447;44.530;18.620;2023-11-21T15:14:30;8.70;99.90
36416;DHT22;22447;44.530;18.620;2023-11-21T15:17:01;8.70;99.90
36416;DHT22;22447;44.530;18.620;2023-11-21T15:19:29;8.70;99.90
36416;DHT22;22447;44.530;18.620;2023-11-21T15:21:57;8.60;99.90
36416;DHT22;22447;44.530;18.620;2023-11-21T15:24:24;8.60;99.90
36416;DHT22;22447;44.530;18.620;2023-11-21T15:26:50;8.60;99.90
36416;DHT22;22447;44.530;18.620;2023-11-21T15:29:16;8.60;99.90
36416;DHT22;22447;44.530;18.620;2023-11-21T15:31:42;8.50;99.90
36416;DHT22;22447;44.530;18.620;2023-11-21T15:34:15;8.50;99.90
36416;DHT22;22447;44.530;18.620;2023-11-21T15:36:41;8.50;99.90
36416;DHT22;22447;44.530;18.620;2023-11-21T15:39:06;8.50;99.90
36416;DHT22;22447;44.530;18.620;2023-11-21T15:41:39;8.60;99.90
36416;DHT22;22447;44.530;18.620;2023-11-21T15:44:06;8.40;99.90
36416;DHT22;22447;44.530;18.620;2023-11-21T15:46:37;8.40;99.90
36416;DHT22;22447;44.530;18.620;2023-11-21T15:49:05;8.40;99.90
36416;DHT22;22447;44.530;18.620;2023-11-21T15:51:39;8.40;99.90